PAMK

St Michael Airport

Airport
ICAO code
PAMK
IATA Code
SMK
Summary
ICAO Region
NAM
ICAO Territory
Location

, Alaska

Serving
St. Michael
Elevation
98 ft
Coordinates
63° 29' 24" N , 162° 6' 37" W
Metar
PAMK 220956Z AUTO 00000KT 10SM CLR 14/11 A3017 RMK AO2 SLP216 T01440106

Runways

Designator Length Width Surface Rops
2/20 1220 23 GRAVEL-G No/No

Airport map

Aerial View

SKYbrary Partners:

Safety knowledge contributed by: